• Join FlightAware (Why Join?)
  • Login
  • US Flag 
03:19AM EDT


 

Airport Tracker/Info


-or-


 

Live Flight TrackerFlight Track Log ✈ N604PJ ✈ 30-Apr-2014 ✈ KCMH - KFMY

Flight Track Log - Related Links

Times and Time Zones

All times are in EDT time to prevent confusion due to time zone crossing. See the N604PJ flight status page for this flight to view local times or setup timezone preferences in your user account.

Time Position Orientation Groundspeed Altitude Reporting Facility
EDT Latitude Longitude Course Direction KTS MPH feet Rate Location/Type
03:38PM 39.9922 -82.9028 282° West 151 174 1,100  Level Indianapolis Center
03:38PM 39.9950 -82.9197 282° West 149 171 1,700 1,980 Climbing Indianapolis Center
03:39PM 39.9989 -82.9753 275° West 181 208 3,600 1,860 Climbing Indianapolis Center
03:40PM 39.9756 -83.0222 237° Southwest 197 227 5,400 1,920 Climbing Indianapolis Center
03:41PM 39.9278 -82.9794 146° Southeast 213 245 7,600 1,980 Climbing Indianapolis Center
03:42PM 39.8725 -82.9131 137° Southeast 224 258 9,600 1,980 Climbing Indianapolis Center
03:43PM 39.8261 -82.8447 131° Southeast 246 283 11,800 1,980 Climbing Indianapolis Center
03:44PM 39.7756 -82.8214 160° South 205 236 13,800 1,740 Climbing Indianapolis Center
03:45PM 39.7239 -82.8081 169° South 193 222 15,500 1,500 Climbing Indianapolis Center
03:46PM 39.6725 -82.7978 171° South 191 220 16,900 1,380 Climbing Indianapolis Center
03:47PM 39.6203 -82.7875 171° South 191 220 18,400 1,380 Climbing Indianapolis Center
03:48PM 39.5581 -82.7756 172° South 189 217 19,800 1,260 Climbing Indianapolis Center
03:49PM 39.5025 -82.7628 170° South 198 228 21,100 1,260 Climbing Indianapolis Center
03:50PM 39.4472 -82.7542 173° South 198 228 22,500 1,200 Climbing Indianapolis Center
03:51PM 39.3908 -82.7411 170° South 202 232 23,600 1,020 Climbing Indianapolis Center
03:53PM 39.3314 -82.7289 171° South 210 242 24,700 960 Climbing Indianapolis Center
03:54PM 39.2714 -82.7169 171° South 213 245 25,700 1,140 Climbing Indianapolis Center
03:55PM 39.1981 -82.7031 172° South 218 251 27,100 1,140 Climbing Indianapolis Center
03:56PM 39.1378 -82.6908 171° South 219 252 28,100 960 Climbing Indianapolis Center
03:57PM 39.0758 -82.6781 171° South 222 255 29,100 840 Climbing Indianapolis Center
03:58PM 39.0158 -82.6681 173° South 222 255 29,900 720 Climbing Indianapolis Center
03:59PM 38.9547 -82.6544 170° South 222 255 30,700 960 Climbing Indianapolis Center
04:00PM 38.8800 -82.6417 172° South 225 259 31,900 900 Climbing Indianapolis Center
04:01PM 38.8217 -82.6297 171° South 218 251 32,600 660 Climbing Indianapolis Center
04:02PM 38.7636 -82.6181 171° South 215 247 33,300 540 Climbing Indianapolis Center
04:03PM 38.7047 -82.6075 172° South 214 246 33,800 480 Climbing Indianapolis Center
04:04PM 38.6439 -82.5936 170° South 215 247 34,400 540 Climbing Indianapolis Center
04:05PM 38.5858 -82.5839 173° South 213 245 35,000 240 Climbing Indianapolis Center
04:06PM 38.5150 -82.5703 171° South 216 249 35,000 180 Level Indianapolis Center
04:07PM 38.4508 -82.5572 171° South 229 264 35,400 360 Climbing Indianapolis Center
04:08PM 38.3881 -82.5461 172° South 229 264 35,800 240 Climbing Indianapolis Center
04:09PM 38.3267 -82.5344 172° South 227 261 36,000 60 Climbing Indianapolis Center
04:10PM 38.2631 -82.5228 172° South 227 261 36,000  Level Indianapolis Center
04:11PM 38.1964 -82.5106 172° South 236 272 36,000  Level Indianapolis Center
04:12PM 38.1153 -82.4931 170° South 247 284 36,000  Level Indianapolis Center
04:13PM 38.0478 -82.4822 173° South 248 285 36,000  Level Indianapolis Center
04:14PM 37.9767 -82.4686 171° South 249 287 36,000  Level Indianapolis Center
04:15PM 37.9089 -82.4556 171° South 249 287 36,000  Level Indianapolis Center
04:16PM 37.8408 -82.4425 171° South 249 287 36,000  Level Indianapolis Center
04:17PM 37.7633 -82.4283 172° South 246 283 36,000  Level Indianapolis Center
04:18PM 37.6967 -82.4158 172° South 243 280 36,000  Level Indianapolis Center
04:19PM 37.6283 -82.3986 169° South 244 281 36,000  Level Indianapolis Center
04:20PM 37.5603 -82.3722 163° South 249 287 36,000  Level Indianapolis Center
04:21PM 37.4906 -82.3522 167° South 254 292 36,000  Level Indianapolis Center
04:23PM 37.4239 -82.3464 176° South 246 283 36,000  Level Indianapolis Center
04:24PM 37.3444 -82.3306 171° South 245 282 36,000  Level Indianapolis Center
04:25PM 37.2767 -82.3183 172° South 245 282 36,000  Level Indianapolis Center
04:26PM 37.2086 -82.3056 171° South 245 282 36,000  Level Indianapolis Center
04:27PM 37.1397 -82.2942 172° South 246 283 36,000  Level Indianapolis Center
04:28PM 37.0719 -82.2811 171° South 246 283 36,000  Level Indianapolis Center
04:29PM 36.9931 -82.2667 172° South 245 282 36,000  Level Indianapolis Center
04:30PM 36.9256 -82.2553 172° South 245 282 36,000  Level Indianapolis Center
04:31PM 36.8578 -82.2442 173° South 245 282 36,000  Level Indianapolis Center
04:32PM 36.7900 -82.2314 171° South 245 282 36,000  Level Indianapolis Center
04:33PM 36.7214 -82.2203 173° South 245 282 36,000  Level Indianapolis Center
04:34PM 36.6542 -82.2083 172° South 245 282 36,000  Level Indianapolis Center
04:35PM 36.5750 -82.1939 172° South 245 282 36,000  Level Indianapolis Center
04:36PM 36.5031 -82.1817 172° South 257 296 36,000  Level Atlanta Center
04:37PM 36.4342 -82.1706 173° South 252 290 36,000  Level Atlanta Center
04:38PM 36.3650 -82.1567 171° South 258 297 36,000  Level Atlanta Center
04:39PM 36.2939 -82.1453 173° South 258 297 36,000  Level Atlanta Center
04:40PM 36.2375 -82.1339 171° South 258 297 36,000  Level Atlanta Center
04:41PM 36.1642 -82.1228 173° South 253 291 36,000  Level Atlanta Center
04:42PM 36.0953 -82.1114 172° South 258 297 36,000  Level Atlanta Center
04:43PM 36.0219 -82.0978 171° South 258 297 36,000  Level Atlanta Center
04:44PM 35.9489 -82.0894 175° South 258 297 36,000  Level Atlanta Center
04:45PM 35.8800 -82.0781 172° South 258 297 36,000  Level Atlanta Center
04:46PM 35.8108 -82.0669 173° South 253 291 36,000  Level Atlanta Center
04:47PM 35.7397 -82.0508 170° South 253 291 36,000  Level Atlanta Center
04:48PM 35.6706 -82.0397 173° South 258 297 36,000  Level Atlanta Center
04:49PM 35.5975 -82.0286 173° South 258 297 36,000  Level Atlanta Center
04:50PM 35.5264 -82.0178 173° South 258 297 36,000  Level Atlanta Center
04:51PM 35.4553 -82.0042 171° South 258 297 36,000  Level Atlanta Center
04:52PM 35.3800 -81.9933 173° South 258 297 36,000  Level Atlanta Center
04:53PM 35.3067 -81.9800 172° South 258 297 36,000  Level Atlanta Center
04:54PM 35.2317 -81.9817 181° South 264 304 36,000  Level Atlanta Center
04:55PM 35.1586 -81.9836 181° South 264 304 36,000  Level Atlanta Center
04:56PM 35.0833 -81.9803 178° South 270 311 36,000  Level Atlanta Center
04:57PM 35.0061 -81.9822 181° South 270 311 36,000  Level Atlanta Center
04:58PM 34.9311 -81.9817 180° South 277 319 36,000  Level Atlanta Center
04:59PM 34.8517 -81.9783 178° South 277 319 36,000  Level Atlanta Center
05:00PM 34.7767 -81.9778 180° South 277 319 36,000  Level Atlanta Center
05:01PM 34.6975 -81.9797 181° South 277 319 36,000  Level Atlanta Center
05:02PM 34.6222 -81.9767 178° South 277 319 36,000  Level Atlanta Center
05:03PM 34.5450 -81.9758 179° South 277 319 36,000  Level Atlanta Center
05:04PM 34.4656 -81.9753 180° South 277 319 36,000  Level Atlanta Center
05:05PM 34.3883 -81.9772 181° South 277 319 36,000  Level Atlanta Center
05:06PM 34.3111 -81.9742 178° South 277 319 36,000  Level Atlanta Center
05:07PM 34.2319 -81.9761 181° South 277 319 36,000  Level Atlanta Center
05:08PM 34.1547 -81.9753 179° South 277 319 36,000  Level Atlanta Center
05:09PM 34.0753 -81.9772 181° South 277 319 36,000  Level Atlanta Center
05:10PM 33.9961 -81.9742 178° South 283 326 36,000  Level Atlanta Center
05:11PM 33.9147 -81.9761 181° South 288 331 36,000  Level Atlanta Center
05:12PM 33.8353 -81.9731 178° South 288 331 36,000  Level Atlanta Center
05:13PM 33.7539 -81.9750 181° South 288 331 36,000  Level Atlanta Center
05:14PM 33.6725 -81.9744 180° South 288 331 36,000  Level Atlanta Center
05:15PM 33.5933 -81.9739 180° South 288 331 36,000  Level Atlanta Center
05:16PM 33.5097 -81.9733 180° South 288 331 36,000  Level Atlanta Center
05:17PM 33.4303 -81.9753 181° South 288 331 36,000  Level Atlanta Center
05:18PM 33.3489 -81.9722 178° South 288 331 36,000  Level Atlanta Center
05:19PM 33.2697 -81.9742 181° South 288 331 36,000  Level Atlanta Center
05:20PM 33.1883 -81.9711 178° South 288 331 36,000  Level Atlanta Center
05:21PM 33.1089 -81.9731 181° South 288 331 36,000  Level Atlanta Center
05:23PM 32.9503 -81.9717 180° South 278 320 36,000  Level Jacksonville Center
05:24PM 32.8689 -81.9725 180° South 284 327 36,000  Level Jacksonville Center
05:25PM 32.7875 -81.9733 180° South 290 334 36,000  Level Jacksonville Center
05:26PM 32.7058 -81.9692 178° South 290 334 36,000  Level Jacksonville Center
05:27PM 32.6267 -81.9725 182° South 290 334 36,000  Level Jacksonville Center
05:28PM 32.5494 -81.9733 181° South 295 339 36,000  Level Jacksonville Center
05:29PM 32.4597 -81.9717 179° South 295 339 36,000  Level Jacksonville Center
05:30PM 32.3761 -81.9725 180° South 305 351 36,000  Level Jacksonville Center
05:31PM 32.3031 -81.9733 181° South 305 351 36,000  Level Jacksonville Center
05:32PM 32.2111 -81.9742 180° South 305 351 36,000  Level Jacksonville Center
05:33PM 32.1425 -81.9897 191° South 296 341 36,000  Level Jacksonville Center
05:34PM 32.0633 -82.0297 203° Southwest 287 330 36,000  Level Jacksonville Center
05:35PM 31.9864 -82.0597 198° South 293 337 36,000  Level Jacksonville Center
05:36PM 31.9197 -82.0897 201° Southwest 288 331 36,000  Level Jacksonville Center
05:37PM 31.8386 -82.1247 200° South 288 331 36,000  Level Jacksonville Center
05:38PM 31.7719 -82.1522 199° South 288 331 36,000  Level Jacksonville Center
05:39PM 31.6886 -82.1869 200° South 288 331 36,000  Level Jacksonville Center
05:40PM 31.6136 -82.2192 200° South 295 339 36,000  Level Jacksonville Center
05:41PM 31.5469 -82.2489 201° Southwest 295 339 36,000  Level Jacksonville Center
05:42PM 31.4719 -82.2836 202° Southwest 290 334 36,000  Level Jacksonville Center
05:43PM 31.3969 -82.3158 200° South 290 334 36,000  Level Jacksonville Center
05:44PM 31.3197 -82.3478 199° South 290 334 36,000  Level Jacksonville Center
05:45PM 31.2406 -82.3800 199° South 296 341 36,000  Level Jacksonville Center
05:46PM 31.1633 -82.4167 202° Southwest 296 341 36,000  Level Jacksonville Center
05:47PM 31.0864 -82.4461 198° South 296 341 36,000  Level Jacksonville Center
05:48PM 31.0069 -82.4806 200° South 301 346 36,000  Level Jacksonville Center
05:49PM 30.9300 -82.5147 201° Southwest 301 346 36,000  Level Jacksonville Center
05:50PM 30.8528 -82.5467 200° South 306 352 36,000  Level Jacksonville Center
05:51PM 30.7736 -82.5831 202° Southwest 306 352 36,000  Level Jacksonville Center
05:52PM 30.6922 -82.6147 198° South 306 352 36,000  Level Jacksonville Center
05:53PM 30.6128 -82.6489 200° South 306 352 36,000  Level Jacksonville Center
05:54PM 30.5294 -82.6803 198° South 306 352 36,000 -360 Level Jacksonville Center
05:55PM 30.4458 -82.7167 201° Southwest 306 352 35,300 -540 Descending Jacksonville Center
05:56PM 30.3603 -82.7531 200° South 313 360 35,000 -180 Descending Jacksonville Center
05:57PM 30.2769 -82.7867 199° South 313 360 35,000  Level Jacksonville Center
05:58PM 30.1975 -82.8228 201° Southwest 313 360 35,000  Level Jacksonville Center
05:59PM 30.1161 -82.8567 200° South 313 360 35,000  Level Jacksonville Center
06:00PM 30.0347 -82.8903 200° South 308 354 35,000  Level Jacksonville Center
06:01PM 29.9514 -82.9261 200° South 314 361 35,000  Level Jacksonville Center
06:02PM 29.8719 -82.9597 200° South 314 361 35,000  Level Jacksonville Center
06:03PM 29.7906 -82.9931 200° South 308 354 35,000  Level Jacksonville Center
06:04PM 29.7111 -83.0289 201° Southwest 308 354 35,000  Level Jacksonville Center
06:05PM 29.6297 -83.0622 200° South 308 354 35,000  Level Jacksonville Center
06:06PM 29.5481 -83.0956 200° South 307 353 35,000  Level Jacksonville Center
06:07PM 29.4731 -83.1239 198° South 312 359 35,000  Level Jacksonville Center
06:08PM 29.3894 -83.1594 200° South 317 365 35,000  Level Jacksonville Center
06:09PM 29.3058 -83.1925 199° South 317 365 35,000  Level Jacksonville Center
06:10PM 29.2222 -83.2281 200° South 317 365 35,000  Level Jacksonville Center
06:11PM 29.1386 -83.2611 199° South 317 365 35,000  Level Jacksonville Center
06:12PM 29.0550 -83.2939 199° South 322 371 35,000  Level Jacksonville Center
06:13PM 28.9714 -83.3292 200° South 322 371 35,000  Level Jacksonville Center
06:14PM 28.8797 -83.3217 176° South 322 371 35,000  Level Jacksonville Center
06:15PM 28.7881 -83.2833 160° South 327 376 35,000 -300 Level Jacksonville Center
06:16PM 28.6942 -83.2500 163° South 340 391 34,500 -840 Descending Jacksonville Center
06:17PM 28.5939 -83.2117 161° South 359 413 33,400 -1,320 Descending Jacksonville Center
06:20PM 28.2714 -83.0975 163° South 388 447 29,300 -1,440 Descending Miami Center
06:21PM 28.1708 -83.0592 161° South 393 452 27,900 -1,200 Descending Miami Center
06:22PM 28.0725 -83.0183 160° South 393 452 27,000 -480 Descending Miami Center
06:23PM 27.9769 -82.9639 153° Southeast 388 447 27,000  Level Miami Center
06:24PM 27.8892 -82.9144 154° Southeast 376 433 27,000  Level Miami Center
06:25PM 27.8100 -82.8658 151° Southeast 370 426 27,000  Level Miami Center
06:26PM 27.7081 -82.8064 153° Southeast 363 418 27,000 -180 Level Miami Center
06:27PM 27.6183 -82.7550 153° Southeast 363 418 26,700 -840 Descending Miami Center
06:28PM 27.5350 -82.7061 153° Southeast 363 418 25,400 -1,080 Descending Miami Center
06:29PM 27.4289 -82.6469 154° Southeast 385 443 24,600 -1,380 Descending Miami Center
06:30PM 27.3389 -82.5958 153° Southeast 368 423 22,700 -2,040 Descending Miami Center
06:31PM 27.2594 -82.5497 153° Southeast 349 402 20,600 -1,800 Descending Miami Center
06:32PM 27.1736 -82.5036 154° Southeast 335 386 19,200 -1,500 Descending Miami Center
06:33PM 27.0981 -82.4581 152° Southeast 330 380 17,600 -1,740 Descending Miami Center
06:34PM 27.0186 -82.4144 154° Southeast 330 380 15,800 -1,920 Descending Miami Center
06:35PM 26.9469 -82.3739 153° Southeast 302 348 13,800 -2,100 Descending Miami Center
06:36PM 26.8714 -82.3306 153° Southeast 297 342 11,700 -2,100 Descending Miami Center
06:37PM 26.8081 -82.2928 152° Southeast 291 335 9,700 -1,980 Descending Miami Center
06:38PM 26.7433 -82.2386 143° Southeast 285 328 7,800 -1,920 Descending Miami Center
06:39PM 26.6825 -82.1894 144° Southeast 285 328 5,900 -1,920 Descending Miami Center
06:40PM 26.6258 -82.1428 144° Southeast 264 304 4,000 -1,500 Descending Miami Center
06:41PM 26.5689 -82.0983 145° Southeast 254 292 3,000 -1,020 Descending Miami Center
06:43PM 26.4599 -82.0199 146° Southeast  Level FlightAware Approximate
06:50PM 26.5833 -81.8500 20° North  Level FlightAware Approximate
06:51PM 26.5866 -81.8633 North  Level Estimated
06:52PM 26.5866 -81.8633 20° North  Level Estimated
06:53PM 26.5866 -81.8633 105° East  Level Estimated
06:54PM 26.5866 -81.8633 20° North  Level Estimated
06:55PM 26.5866 -81.8633 105° East  Level Estimated